Bremerton National Airport Bremerton US
ICAO: KPWT
IATA: PWT
Category: Medium
Scheduled Services: No

Elevation: 444 ft
TransAlt. 18000 ft.

Airport Communications:
SEATTLE APP/DEP:127.1
AWOS 3:121.2
CTAF/UNICOM:123.05

KPWT Zoom In..

If Map Doesn't Load, Click Here

Runways:

(A) RW 02 length 6000 ft width 150 ft
---- / hdg 17

(B) RW 20 length 6000 ft width 150 ft
ILS 111.10 / hdg 197

Location; KPWT
Day. 23 / Time. 21.56 Zulu
* Altimeter: 30.16
* Temperature: 17° c. 62.6°f.
* Wind from: VRB° Speed 03 kn.
Dewpoint: 04° c.
Visibility: 10 Statute Miles.
Clouds: Few 6000 ft.

KPWT 232156Z AUTO VRB03KT 10SM FEW060 17/04 A3016 RMK AO2 SLP231 T01720044


Wind From VRB°
Speed 03 kn.

 
 
jpsmedia.com for Web Design worldairports.se 2018   terms of use